sensor_id;sensor_type;location;lat;lon;timestamp;P1;durP1;ratioP1;P2;durP2;ratioP2
52512;SDS011;38422;53.172;6.974;2023-03-14T00:01:57;17.27;;;4.07;;
52512;SDS011;38422;53.172;6.974;2023-03-14T00:04:22;19.15;;;3.75;;
52512;SDS011;38422;53.172;6.974;2023-03-14T00:06:48;16.13;;;3.40;;
52512;SDS011;38422;53.172;6.974;2023-03-14T00:09:14;18.08;;;3.80;;
52512;SDS011;38422;53.172;6.974;2023-03-14T00:11:41;15.63;;;3.50;;
52512;SDS011;38422;53.172;6.974;2023-03-14T00:14:07;16.52;;;3.10;;
52512;SDS011;38422;53.172;6.974;2023-03-14T00:16:32;22.73;;;3.88;;
52512;SDS011;38422;53.172;6.974;2023-03-14T00:18:58;19.42;;;3.60;;
52512;SDS011;38422;53.172;6.974;2023-03-14T00:21:24;18.73;;;3.38;;
52512;SDS011;38422;53.172;6.974;2023-03-14T00:23:50;21.50;;;3.47;;
52512;SDS011;38422;53.172;6.974;2023-03-14T00:26:17;18.88;;;3.55;;
52512;SDS011;38422;53.172;6.974;2023-03-14T00:28:45;16.25;;;3.72;;
52512;SDS011;38422;53.172;6.974;2023-03-14T00:31:12;15.23;;;3.13;;
52512;SDS011;38422;53.172;6.974;2023-03-14T00:33:39;15.50;;;3.58;;
52512;SDS011;38422;53.172;6.974;2023-03-14T00:36:06;18.10;;;3.25;;
52512;SDS011;38422;53.172;6.974;2023-03-14T00:38:36;15.02;;;3.00;;
52512;SDS011;38422;53.172;6.974;2023-03-14T00:41:04;16.70;;;3.20;;
52512;SDS011;38422;53.172;6.974;2023-03-14T00:43:32;15.77;;;2.70;;
52512;SDS011;38422;53.172;6.974;2023-03-14T00:45:58;16.23;;;3.08;;
52512;SDS011;38422;53.172;6.974;2023-03-14T00:48:24;15.43;;;2.55;;
52512;SDS011;38422;53.172;6.974;2023-03-14T00:50:49;15.05;;;3.17;;
52512;SDS011;38422;53.172;6.974;2023-03-14T00:53:15;18.23;;;3.70;;
52512;SDS011;38422;53.172;6.974;2023-03-14T00:55:42;17.10;;;3.47;;
52512;SDS011;38422;53.172;6.974;2023-03-14T00:58:08;14.85;;;3.10;;
52512;SDS011;38422;53.172;6.974;2023-03-14T01:00:35;13.63;;;2.78;;
52512;SDS011;38422;53.172;6.974;2023-03-14T01:03:01;14.10;;;3.30;;
52512;SDS011;38422;53.172;6.974;2023-03-14T01:05:27;14.60;;;2.95;;
52512;SDS011;38422;53.172;6.974;2023-03-14T01:07:53;16.55;;;3.00;;
52512;SDS011;38422;53.172;6.974;2023-03-14T01:10:19;18.50;;;3.30;;
52512;SDS011;38422;53.172;6.974;2023-03-14T01:12:45;14.05;;;3.08;;
52512;SDS011;38422;53.172;6.974;2023-03-14T01:15:10;14.35;;;2.90;;
52512;SDS011;38422;53.172;6.974;2023-03-14T01:17:36;18.45;;;3.10;;
52512;SDS011;38422;53.172;6.974;2023-03-14T01:20:04;14.32;;;3.03;;
52512;SDS011;38422;53.172;6.974;2023-03-14T01:22:34;15.23;;;3.47;;
52512;SDS011;38422;53.172;6.974;2023-03-14T01:25:08;15.25;;;3.20;;
52512;SDS011;38422;53.172;6.974;2023-03-14T01:27:35;18.13;;;3.40;;
52512;SDS011;38422;53.172;6.974;2023-03-14T01:30:01;13.25;;;2.80;;
52512;SDS011;38422;53.172;6.974;2023-03-14T01:32:28;14.02;;;3.40;;
52512;SDS011;38422;53.172;6.974;2023-03-14T01:34:54;17.20;;;3.30;;
52512;SDS011;38422;53.172;6.974;2023-03-14T01:37:20;11.35;;;2.97;;
52512;SDS011;38422;53.172;6.974;2023-03-14T01:39:48;12.77;;;2.83;;
52512;SDS011;38422;53.172;6.974;2023-03-14T01:42:15;14.80;;;2.90;;
52512;SDS011;38422;53.172;6.974;2023-03-14T01:44:48;10.13;;;2.78;;
52512;SDS011;38422;53.172;6.974;2023-03-14T01:47:24;11.90;;;2.80;;
52512;SDS011;38422;53.172;6.974;2023-03-14T01:49:51;14.00;;;3.33;;
52512;SDS011;38422;53.172;6.974;2023-03-14T01:52:36;13.70;;;3.00;;
52512;SDS011;38422;53.172;6.974;2023-03-14T01:57:48;14.55;;;3.25;;
52512;SDS011;38422;53.172;6.974;2023-03-14T02:00:19;18.77;;;4.15;;
52512;SDS011;38422;53.172;6.974;2023-03-14T02:02:48;13.98;;;3.45;;
52512;SDS011;38422;53.172;6.974;2023-03-14T02:05:25;12.00;;;3.58;;
52512;SDS011;38422;53.172;6.974;2023-03-14T02:07:56;18.40;;;3.88;;
52512;SDS011;38422;53.172;6.974;2023-03-14T02:10:25;13.40;;;3.60;;
52512;SDS011;38422;53.172;6.974;2023-03-14T02:12:56;9.18;;;2.20;;
52512;SDS011;38422;53.172;6.974;2023-03-14T02:15:26;10.35;;;2.42;;
52512;SDS011;38422;53.172;6.974;2023-03-14T02:17:52;11.98;;;2.55;;
52512;SDS011;38422;53.172;6.974;2023-03-14T02:20:25;13.65;;;3.25;;
52512;SDS011;38422;53.172;6.974;2023-03-14T02:23:13;11.77;;;2.35;;
52512;SDS011;38422;53.172;6.974;2023-03-14T02:25:48;12.00;;;2.15;;
52512;SDS011;38422;53.172;6.974;2023-03-14T02:28:22;10.80;;;2.15;;
52512;SDS011;38422;53.172;6.974;2023-03-14T02:30:48;9.98;;;2.00;;
52512;SDS011;38422;53.172;6.974;2023-03-14T02:33:15;13.75;;;2.30;;
52512;SDS011;38422;53.172;6.974;2023-03-14T02:35:53;10.43;;;2.20;;
52512;SDS011;38422;53.172;6.974;2023-03-14T02:38:31;9.23;;;2.13;;
52512;SDS011;38422;53.172;6.974;2023-03-14T02:41:09;11.77;;;2.15;;
52512;SDS011;38422;53.172;6.974;2023-03-14T02:43:35;10.75;;;2.20;;
52512;SDS011;38422;53.172;6.974;2023-03-14T02:46:01;11.30;;;2.10;;
52512;SDS011;38422;53.172;6.974;2023-03-14T02:48:30;11.00;;;2.28;;
52512;SDS011;38422;53.172;6.974;2023-03-14T02:51:00;8.93;;;1.65;;
52512;SDS011;38422;53.172;6.974;2023-03-14T02:53:30;9.50;;;1.85;;
52512;SDS011;38422;53.172;6.974;2023-03-14T02:55:58;9.20;;;1.92;;
52512;SDS011;38422;53.172;6.974;2023-03-14T02:58:25;11.50;;;1.87;;
52512;SDS011;38422;53.172;6.974;2023-03-14T03:00:51;8.63;;;1.90;;
52512;SDS011;38422;53.172;6.974;2023-03-14T03:03:17;8.40;;;1.92;;
52512;SDS011;38422;53.172;6.974;2023-03-14T03:05:47;10.68;;;2.15;;
52512;SDS011;38422;53.172;6.974;2023-03-14T03:08:13;11.30;;;1.83;;
52512;SDS011;38422;53.172;6.974;2023-03-14T03:10:39;8.50;;;2.20;;
52512;SDS011;38422;53.172;6.974;2023-03-14T03:13:05;6.00;;;1.75;;
52512;SDS011;38422;53.172;6.974;2023-03-14T03:15:30;10.40;;;2.08;;
52512;SDS011;38422;53.172;6.974;2023-03-14T03:17:56;10.13;;;2.53;;
52512;SDS011;38422;53.172;6.974;2023-03-14T03:20:22;6.32;;;1.77;;
52512;SDS011;38422;53.172;6.974;2023-03-14T03:22:47;12.27;;;2.80;;
52512;SDS011;38422;53.172;6.974;2023-03-14T03:25:14;10.60;;;3.33;;
52512;SDS011;38422;53.172;6.974;2023-03-14T03:27:41;11.40;;;2.90;;
52512;SDS011;38422;53.172;6.974;2023-03-14T03:30:06;13.75;;;2.85;;
52512;SDS011;38422;53.172;6.974;2023-03-14T03:32:33;12.05;;;2.75;;
52512;SDS011;38422;53.172;6.974;2023-03-14T03:34:59;11.73;;;3.00;;
52512;SDS011;38422;53.172;6.974;2023-03-14T03:37:25;12.77;;;3.67;;
52512;SDS011;38422;53.172;6.974;2023-03-14T03:39:51;11.50;;;3.17;;
52512;SDS011;38422;53.172;6.974;2023-03-14T03:42:17;11.70;;;2.97;;
52512;SDS011;38422;53.172;6.974;2023-03-14T03:44:43;11.37;;;3.23;;
52512;SDS011;38422;53.172;6.974;2023-03-14T03:47:09;12.57;;;4.35;;
52512;SDS011;38422;53.172;6.974;2023-03-14T03:49:35;10.65;;;3.75;;
52512;SDS011;38422;53.172;6.974;2023-03-14T03:52:00;11.88;;;4.07;;
52512;SDS011;38422;53.172;6.974;2023-03-14T03:54:26;11.32;;;4.45;;
52512;SDS011;38422;53.172;6.974;2023-03-14T03:56:53;12.27;;;3.53;;
52512;SDS011;38422;53.172;6.974;2023-03-14T03:59:19;9.48;;;3.13;;
52512;SDS011;38422;53.172;6.974;2023-03-14T04:01:45;11.13;;;2.60;;
52512;SDS011;38422;53.172;6.974;2023-03-14T04:04:11;8.82;;;2.88;;
52512;SDS011;38422;53.172;6.974;2023-03-14T04:06:37;9.18;;;2.55;;
52512;SDS011;38422;53.172;6.974;2023-03-14T04:09:03;10.07;;;3.20;;
52512;SDS011;38422;53.172;6.974;2023-03-14T04:11:29;9.75;;;2.72;;
52512;SDS011;38422;53.172;6.974;2023-03-14T04:13:55;9.02;;;3.55;;
52512;SDS011;38422;53.172;6.974;2023-03-14T04:16:22;10.63;;;2.78;;
52512;SDS011;38422;53.172;6.974;2023-03-14T04:18:50;11.40;;;3.05;;
52512;SDS011;38422;53.172;6.974;2023-03-14T04:21:16;11.90;;;2.95;;
52512;SDS011;38422;53.172;6.974;2023-03-14T04:23:42;10.90;;;3.55;;
52512;SDS011;38422;53.172;6.974;2023-03-14T04:26:08;10.57;;;3.90;;
52512;SDS011;38422;53.172;6.974;2023-03-14T04:28:34;9.85;;;3.40;;
52512;SDS011;38422;53.172;6.974;2023-03-14T04:31:37;14.40;;;3.70;;
52512;SDS011;38422;53.172;6.974;2023-03-14T04:33:56;11.70;;;3.67;;
52512;SDS011;38422;53.172;6.974;2023-03-14T04:36:21;12.27;;;3.38;;
52512;SDS011;38422;53.172;6.974;2023-03-14T04:38:47;12.20;;;3.75;;
52512;SDS011;38422;53.172;6.974;2023-03-14T04:41:13;10.32;;;3.17;;
52512;SDS011;38422;53.172;6.974;2023-03-14T04:43:38;9.73;;;3.92;;
52512;SDS011;38422;53.172;6.974;2023-03-14T04:46:04;9.20;;;3.40;;
52512;SDS011;38422;53.172;6.974;2023-03-14T04:48:30;12.45;;;4.10;;
52512;SDS011;38422;53.172;6.974;2023-03-14T04:50:56;11.00;;;4.10;;
52512;SDS011;38422;53.172;6.974;2023-03-14T04:53:22;9.00;;;3.15;;
52512;SDS011;38422;53.172;6.974;2023-03-14T04:55:51;8.73;;;3.28;;
52512;SDS011;38422;53.172;6.974;2023-03-14T04:58:19;10.02;;;3.55;;
52512;SDS011;38422;53.172;6.974;2023-03-14T05:00:45;13.95;;;6.28;;
52512;SDS011;38422;53.172;6.974;2023-03-14T05:03:11;13.40;;;6.22;;
52512;SDS011;38422;53.172;6.974;2023-03-14T05:08:04;13.65;;;5.70;;
52512;SDS011;38422;53.172;6.974;2023-03-14T05:10:30;11.02;;;6.55;;
52512;SDS011;38422;53.172;6.974;2023-03-14T05:12:56;11.88;;;6.30;;
52512;SDS011;38422;53.172;6.974;2023-03-14T05:15:21;14.63;;;5.85;;
52512;SDS011;38422;53.172;6.974;2023-03-14T05:17:47;13.05;;;5.95;;
52512;SDS011;38422;53.172;6.974;2023-03-14T05:20:14;10.77;;;5.95;;
52512;SDS011;38422;53.172;6.974;2023-03-14T05:22:40;11.48;;;5.63;;
52512;SDS011;38422;53.172;6.974;2023-03-14T05:25:07;8.77;;;5.17;;
52512;SDS011;38422;53.172;6.974;2023-03-14T05:27:33;8.33;;;4.93;;
52512;SDS011;38422;53.172;6.974;2023-03-14T05:29:59;12.73;;;4.57;;
52512;SDS011;38422;53.172;6.974;2023-03-14T05:32:25;10.10;;;3.63;;
52512;SDS011;38422;53.172;6.974;2023-03-14T05:34:50;8.73;;;3.38;;
52512;SDS011;38422;53.172;6.974;2023-03-14T05:37:16;7.40;;;2.92;;
52512;SDS011;38422;53.172;6.974;2023-03-14T05:39:42;7.97;;;3.03;;
52512;SDS011;38422;53.172;6.974;2023-03-14T05:42:07;8.52;;;3.20;;
52512;SDS011;38422;53.172;6.974;2023-03-14T05:44:33;8.57;;;3.53;;
52512;SDS011;38422;53.172;6.974;2023-03-14T05:46:59;8.55;;;2.78;;
52512;SDS011;38422;53.172;6.974;2023-03-14T05:49:24;12.50;;;3.70;;
52512;SDS011;38422;53.172;6.974;2023-03-14T05:51:50;9.77;;;3.22;;
52512;SDS011;38422;53.172;6.974;2023-03-14T05:54:16;10.90;;;3.85;;
52512;SDS011;38422;53.172;6.974;2023-03-14T05:56:42;10.18;;;3.70;;
52512;SDS011;38422;53.172;6.974;2023-03-14T05:59:07;11.85;;;4.15;;
52512;SDS011;38422;53.172;6.974;2023-03-14T06:01:34;10.50;;;4.10;;
52512;SDS011;38422;53.172;6.974;2023-03-14T06:03:59;9.55;;;4.20;;
52512;SDS011;38422;53.172;6.974;2023-03-14T06:06:25;8.85;;;3.83;;
52512;SDS011;38422;53.172;6.974;2023-03-14T06:08:51;10.82;;;4.13;;
52512;SDS011;38422;53.172;6.974;2023-03-14T06:11:16;11.20;;;4.20;;
52512;SDS011;38422;53.172;6.974;2023-03-14T06:13:42;9.77;;;3.65;;
52512;SDS011;38422;53.172;6.974;2023-03-14T06:16:08;12.20;;;4.10;;
52512;SDS011;38422;53.172;6.974;2023-03-14T06:18:34;9.32;;;3.95;;
52512;SDS011;38422;53.172;6.974;2023-03-14T06:21:00;10.38;;;4.10;;
52512;SDS011;38422;53.172;6.974;2023-03-14T06:23:25;11.48;;;4.05;;
52512;SDS011;38422;53.172;6.974;2023-03-14T06:25:51;9.43;;;4.05;;
52512;SDS011;38422;53.172;6.974;2023-03-14T06:28:17;10.52;;;4.30;;
52512;SDS011;38422;53.172;6.974;2023-03-14T06:30:43;11.15;;;4.50;;
52512;SDS011;38422;53.172;6.974;2023-03-14T06:33:09;10.82;;;4.63;;
52512;SDS011;38422;53.172;6.974;2023-03-14T06:35:34;8.40;;;3.88;;
52512;SDS011;38422;53.172;6.974;2023-03-14T06:38:00;10.07;;;4.25;;
52512;SDS011;38422;53.172;6.974;2023-03-14T06:40:26;10.63;;;5.93;;
52512;SDS011;38422;53.172;6.974;2023-03-14T06:42:52;12.52;;;6.85;;
52512;SDS011;38422;53.172;6.974;2023-03-14T06:45:17;10.93;;;5.25;;
52512;SDS011;38422;53.172;6.974;2023-03-14T06:47:43;10.05;;;3.28;;
52512;SDS011;38422;53.172;6.974;2023-03-14T06:50:09;7.75;;;3.20;;
52512;SDS011;38422;53.172;6.974;2023-03-14T06:52:35;8.37;;;3.00;;
52512;SDS011;38422;53.172;6.974;2023-03-14T06:55:02;9.57;;;2.72;;
52512;SDS011;38422;53.172;6.974;2023-03-14T06:57:28;8.45;;;2.95;;
52512;SDS011;38422;53.172;6.974;2023-03-14T06:59:54;6.95;;;2.70;;
52512;SDS011;38422;53.172;6.974;2023-03-14T07:02:20;7.88;;;2.78;;
52512;SDS011;38422;53.172;6.974;2023-03-14T07:04:47;6.10;;;1.10;;
52512;SDS011;38422;53.172;6.974;2023-03-14T07:07:12;5.25;;;0.98;;
52512;SDS011;38422;53.172;6.974;2023-03-14T07:09:38;3.88;;;0.70;;
52512;SDS011;38422;53.172;6.974;2023-03-14T07:12:04;5.25;;;0.80;;
52512;SDS011;38422;53.172;6.974;2023-03-14T07:14:30;5.75;;;1.00;;
52512;SDS011;38422;53.172;6.974;2023-03-14T07:16:55;6.53;;;1.02;;
52512;SDS011;38422;53.172;6.974;2023-03-14T07:19:21;10.07;;;1.10;;
52512;SDS011;38422;53.172;6.974;2023-03-14T07:21:47;9.32;;;1.17;;
52512;SDS011;38422;53.172;6.974;2023-03-14T07:24:13;7.10;;;1.00;;
52512;SDS011;38422;53.172;6.974;2023-03-14T07:26:38;9.30;;;1.40;;
52512;SDS011;38422;53.172;6.974;2023-03-14T07:29:04;10.85;;;1.45;;
52512;SDS011;38422;53.172;6.974;2023-03-14T07:31:30;5.95;;;1.10;;
52512;SDS011;38422;53.172;6.974;2023-03-14T07:33:56;9.07;;;1.10;;
52512;SDS011;38422;53.172;6.974;2023-03-14T07:36:22;9.10;;;1.10;;
52512;SDS011;38422;53.172;6.974;2023-03-14T07:38:48;11.45;;;1.50;;
52512;SDS011;38422;53.172;6.974;2023-03-14T07:41:14;9.82;;;0.88;;
52512;SDS011;38422;53.172;6.974;2023-03-14T07:43:40;7.55;;;0.77;;
52512;SDS011;38422;53.172;6.974;2023-03-14T07:46:06;5.43;;;0.90;;
52512;SDS011;38422;53.172;6.974;2023-03-14T07:48:33;7.20;;;1.10;;
52512;SDS011;38422;53.172;6.974;2023-03-14T07:50:58;6.47;;;0.70;;
52512;SDS011;38422;53.172;6.974;2023-03-14T07:53:24;7.80;;;0.95;;
52512;SDS011;38422;53.172;6.974;2023-03-14T07:55:51;9.68;;;1.23;;
52512;SDS011;38422;53.172;6.974;2023-03-14T07:58:19;5.70;;;1.58;;
52512;SDS011;38422;53.172;6.974;2023-03-14T08:00:46;3.95;;;0.57;;
52512;SDS011;38422;53.172;6.974;2023-03-14T08:03:12;2.53;;;0.30;;
52512;SDS011;38422;53.172;6.974;2023-03-14T08:05:38;3.25;;;0.30;;
52512;SDS011;38422;53.172;6.974;2023-03-14T08:08:04;4.50;;;0.50;;
52512;SDS011;38422;53.172;6.974;2023-03-14T08:10:30;5.13;;;0.60;;
52512;SDS011;38422;53.172;6.974;2023-03-14T08:12:58;1.95;;;0.40;;
52512;SDS011;38422;53.172;6.974;2023-03-14T08:15:25;4.22;;;0.40;;
52512;SDS011;38422;53.172;6.974;2023-03-14T08:17:51;1.48;;;0.22;;
52512;SDS011;38422;53.172;6.974;2023-03-14T08:20:18;4.07;;;0.50;;
52512;SDS011;38422;53.172;6.974;2023-03-14T08:22:48;2.58;;;0.60;;
52512;SDS011;38422;53.172;6.974;2023-03-14T08:25:13;2.72;;;0.65;;
52512;SDS011;38422;53.172;6.974;2023-03-14T08:27:40;3.80;;;0.43;;
52512;SDS011;38422;53.172;6.974;2023-03-14T08:30:07;3.80;;;0.57;;
52512;SDS011;38422;53.172;6.974;2023-03-14T08:32:36;3.58;;;0.50;;
52512;SDS011;38422;53.172;6.974;2023-03-14T08:35:02;6.15;;;0.50;;
52512;SDS011;38422;53.172;6.974;2023-03-14T08:37:33;5.18;;;0.93;;
52512;SDS011;38422;53.172;6.974;2023-03-14T08:40:00;3.00;;;0.60;;
52512;SDS011;38422;53.172;6.974;2023-03-14T08:42:31;2.92;;;0.47;;
52512;SDS011;38422;53.172;6.974;2023-03-14T08:44:57;3.60;;;0.50;;
52512;SDS011;38422;53.172;6.974;2023-03-14T08:47:23;5.10;;;0.75;;
52512;SDS011;38422;53.172;6.974;2023-03-14T08:49:49;2.75;;;0.50;;
52512;SDS011;38422;53.172;6.974;2023-03-14T08:52:15;5.05;;;1.00;;
52512;SDS011;38422;53.172;6.974;2023-03-14T08:54:41;4.47;;;0.60;;
52512;SDS011;38422;53.172;6.974;2023-03-14T08:57:09;4.07;;;0.70;;
52512;SDS011;38422;53.172;6.974;2023-03-14T08:59:34;5.20;;;0.70;;
52512;SDS011;38422;53.172;6.974;2023-03-14T09:02:01;4.78;;;1.20;;
52512;SDS011;38422;53.172;6.974;2023-03-14T09:04:29;5.47;;;1.00;;
52512;SDS011;38422;53.172;6.974;2023-03-14T09:06:55;4.50;;;0.90;;
52512;SDS011;38422;53.172;6.974;2023-03-14T09:09:23;7.28;;;1.23;;
52512;SDS011;38422;53.172;6.974;2023-03-14T09:11:49;8.55;;;1.10;;
52512;SDS011;38422;53.172;6.974;2023-03-14T09:14:14;6.45;;;1.02;;
52512;SDS011;38422;53.172;6.974;2023-03-14T09:16:40;6.07;;;1.00;;
52512;SDS011;38422;53.172;6.974;2023-03-14T09:19:06;7.88;;;1.23;;
52512;SDS011;38422;53.172;6.974;2023-03-14T09:21:31;6.32;;;1.05;;
52512;SDS011;38422;53.172;6.974;2023-03-14T09:23:57;6.57;;;1.33;;
52512;SDS011;38422;53.172;6.974;2023-03-14T09:26:23;10.32;;;1.30;;
52512;SDS011;38422;53.172;6.974;2023-03-14T09:28:49;8.35;;;1.20;;
52512;SDS011;38422;53.172;6.974;2023-03-14T09:31:15;7.65;;;1.30;;
52512;SDS011;38422;53.172;6.974;2023-03-14T09:33:40;8.27;;;1.35;;
52512;SDS011;38422;53.172;6.974;2023-03-14T09:36:06;9.60;;;1.45;;
52512;SDS011;38422;53.172;6.974;2023-03-14T09:38:33;11.57;;;1.60;;
52512;SDS011;38422;53.172;6.974;2023-03-14T09:41:00;10.88;;;2.00;;
52512;SDS011;38422;53.172;6.974;2023-03-14T09:43:28;7.32;;;1.48;;
52512;SDS011;38422;53.172;6.974;2023-03-14T09:45:56;14.27;;;2.63;;
52512;SDS011;38422;53.172;6.974;2023-03-14T09:48:26;10.57;;;1.70;;
52512;SDS011;38422;53.172;6.974;2023-03-14T09:50:55;14.55;;;2.13;;
52512;SDS011;38422;53.172;6.974;2023-03-14T09:53:26;11.93;;;2.00;;
52512;SDS011;38422;53.172;6.974;2023-03-14T09:56:07;13.35;;;2.25;;
52512;SDS011;38422;53.172;6.974;2023-03-14T09:58:39;13.70;;;2.42;;
52512;SDS011;38422;53.172;6.974;2023-03-14T10:01:07;17.73;;;2.95;;
52512;SDS011;38422;53.172;6.974;2023-03-14T10:03:38;11.95;;;2.05;;
52512;SDS011;38422;53.172;6.974;2023-03-14T10:06:08;13.48;;;2.30;;
52512;SDS011;38422;53.172;6.974;2023-03-14T10:08:39;10.77;;;1.85;;
52512;SDS011;38422;53.172;6.974;2023-03-14T10:11:06;9.95;;;1.70;;
52512;SDS011;38422;53.172;6.974;2023-03-14T10:13:35;9.77;;;1.60;;
52512;SDS011;38422;53.172;6.974;2023-03-14T10:16:11;12.10;;;1.83;;
52512;SDS011;38422;53.172;6.974;2023-03-14T10:18:38;14.30;;;1.98;;
52512;SDS011;38422;53.172;6.974;2023-03-14T10:21:26;12.05;;;2.00;;
52512;SDS011;38422;53.172;6.974;2023-03-14T10:23:54;16.75;;;2.72;;
52512;SDS011;38422;53.172;6.974;2023-03-14T10:26:31;15.98;;;2.53;;
52512;SDS011;38422;53.172;6.974;2023-03-14T10:29:03;16.23;;;1.95;;
52512;SDS011;38422;53.172;6.974;2023-03-14T10:34:15;18.50;;;2.78;;
52512;SDS011;38422;53.172;6.974;2023-03-14T10:36:42;13.63;;;2.00;;
52512;SDS011;38422;53.172;6.974;2023-03-14T10:41:50;15.88;;;2.30;;
52512;SDS011;38422;53.172;6.974;2023-03-14T10:44:21;15.40;;;2.33;;
52512;SDS011;38422;53.172;6.974;2023-03-14T10:47:02;12.05;;;2.22;;
52512;SDS011;38422;53.172;6.974;2023-03-14T10:49:30;15.35;;;2.55;;
52512;SDS011;38422;53.172;6.974;2023-03-14T10:54:57;13.15;;;2.05;;
52512;SDS011;38422;53.172;6.974;2023-03-14T10:57:25;14.48;;;2.05;;
52512;SDS011;38422;53.172;6.974;2023-03-14T10:59:52;11.68;;;1.90;;
52512;SDS011;38422;53.172;6.974;2023-03-14T11:02:28;10.27;;;2.10;;
52512;SDS011;38422;53.172;6.974;2023-03-14T11:05:43;11.35;;;1.60;;
52512;SDS011;38422;53.172;6.974;2023-03-14T11:11:19;13.13;;;1.83;;
52512;SDS011;38422;53.172;6.974;2023-03-14T11:16:47;9.10;;;1.77;;
52512;SDS011;38422;53.172;6.974;2023-03-14T11:30:35;7.95;;;1.60;;
52512;SDS011;38422;53.172;6.974;2023-03-14T11:33:15;8.32;;;1.40;;
52512;SDS011;38422;53.172;6.974;2023-03-14T11:35:57;7.13;;;0.95;;
52512;SDS011;38422;53.172;6.974;2023-03-14T11:38:32;5.82;;;1.67;;
52512;SDS011;38422;53.172;6.974;2023-03-14T11:41:09;7.63;;;1.38;;
52512;SDS011;38422;53.172;6.974;2023-03-14T11:43:42;8.52;;;1.50;;
52512;SDS011;38422;53.172;6.974;2023-03-14T11:46:17;7.68;;;1.30;;
52512;SDS011;38422;53.172;6.974;2023-03-14T11:49:03;7.95;;;1.30;;
52512;SDS011;38422;53.172;6.974;2023-03-14T11:51:38;10.18;;;1.70;;
52512;SDS011;38422;53.172;6.974;2023-03-14T11:57:20;9.82;;;1.30;;
52512;SDS011;38422;53.172;6.974;2023-03-14T11:59:50;7.35;;;1.15;;
52512;SDS011;38422;53.172;6.974;2023-03-14T12:02:27;7.25;;;1.13;;
52512;SDS011;38422;53.172;6.974;2023-03-14T12:10:50;8.57;;;3.03;;
52512;SDS011;38422;53.172;6.974;2023-03-14T12:13:19;4.00;;;1.20;;
52512;SDS011;38422;53.172;6.974;2023-03-14T12:15:55;4.10;;;1.10;;
52512;SDS011;38422;53.172;6.974;2023-03-14T12:18:27;3.95;;;0.80;;
52512;SDS011;38422;53.172;6.974;2023-03-14T12:21:03;4.47;;;0.90;;
52512;SDS011;38422;53.172;6.974;2023-03-14T12:23:41;5.25;;;1.10;;
52512;SDS011;38422;53.172;6.974;2023-03-14T12:26:19;6.30;;;1.50;;
52512;SDS011;38422;53.172;6.974;2023-03-14T12:42:13;9.15;;;1.58;;
52512;SDS011;38422;53.172;6.974;2023-03-14T12:44:47;10.32;;;1.55;;
52512;SDS011;38422;53.172;6.974;2023-03-14T12:49:45;9.70;;;1.50;;
52512;SDS011;38422;53.172;6.974;2023-03-14T12:52:14;6.78;;;1.30;;
52512;SDS011;38422;53.172;6.974;2023-03-14T12:54:45;8.30;;;1.42;;
52512;SDS011;38422;53.172;6.974;2023-03-14T13:00:30;8.50;;;1.60;;
52512;SDS011;38422;53.172;6.974;2023-03-14T13:03:17;8.93;;;1.73;;
52512;SDS011;38422;53.172;6.974;2023-03-14T13:05:57;9.20;;;1.50;;
52512;SDS011;38422;53.172;6.974;2023-03-14T13:08:40;8.90;;;1.45;;
52512;SDS011;38422;53.172;6.974;2023-03-14T13:11:09;8.73;;;1.38;;
52512;SDS011;38422;53.172;6.974;2023-03-14T13:13:41;9.07;;;1.33;;
52512;SDS011;38422;53.172;6.974;2023-03-14T13:16:16;5.22;;;1.00;;
52512;SDS011;38422;53.172;6.974;2023-03-14T13:18:48;6.20;;;0.90;;
52512;SDS011;38422;53.172;6.974;2023-03-14T13:24:00;5.05;;;1.00;;
52512;SDS011;38422;53.172;6.974;2023-03-14T13:26:36;5.90;;;0.90;;
52512;SDS011;38422;53.172;6.974;2023-03-14T13:34:19;5.72;;;0.93;;
52512;SDS011;38422;53.172;6.974;2023-03-14T13:36:44;6.47;;;1.23;;
52512;SDS011;38422;53.172;6.974;2023-03-14T13:39:12;7.30;;;1.02;;
52512;SDS011;38422;53.172;6.974;2023-03-14T13:41:40;9.95;;;1.42;;
52512;SDS011;38422;53.172;6.974;2023-03-14T13:46:34;10.80;;;1.60;;
52512;SDS011;38422;53.172;6.974;2023-03-14T13:51:28;5.85;;;1.13;;
52512;SDS011;38422;53.172;6.974;2023-03-14T13:53:57;6.15;;;1.10;;
52512;SDS011;38422;53.172;6.974;2023-03-14T13:56:26;5.40;;;0.90;;
52512;SDS011;38422;53.172;6.974;2023-03-14T13:58:53;5.43;;;0.93;;
52512;SDS011;38422;53.172;6.974;2023-03-14T14:01:20;6.35;;;1.00;;
52512;SDS011;38422;53.172;6.974;2023-03-14T14:03:54;5.70;;;1.02;;
52512;SDS011;38422;53.172;6.974;2023-03-14T14:06:29;3.72;;;0.90;;
52512;SDS011;38422;53.172;6.974;2023-03-14T14:09:02;4.40;;;0.85;;
52512;SDS011;38422;53.172;6.974;2023-03-14T14:11:38;4.95;;;0.90;;
52512;SDS011;38422;53.172;6.974;2023-03-14T14:14:27;4.35;;;1.02;;
52512;SDS011;38422;53.172;6.974;2023-03-14T14:16:58;5.03;;;1.00;;
52512;SDS011;38422;53.172;6.974;2023-03-14T14:19:27;8.65;;;1.00;;
52512;SDS011;38422;53.172;6.974;2023-03-14T14:21:55;6.82;;;1.75;;
52512;SDS011;38422;53.172;6.974;2023-03-14T14:24:23;5.68;;;1.20;;
52512;SDS011;38422;53.172;6.974;2023-03-14T14:26:53;6.30;;;1.40;;
52512;SDS011;38422;53.172;6.974;2023-03-14T14:29:27;10.25;;;1.48;;
52512;SDS011;38422;53.172;6.974;2023-03-14T14:37:27;8.80;;;1.70;;
52512;SDS011;38422;53.172;6.974;2023-03-14T14:39:59;5.28;;;0.75;;
52512;SDS011;38422;53.172;6.974;2023-03-14T14:42:46;6.10;;;1.10;;
52512;SDS011;38422;53.172;6.974;2023-03-14T14:45:22;7.72;;;1.08;;
52512;SDS011;38422;53.172;6.974;2023-03-14T14:47:50;7.38;;;1.20;;
52512;SDS011;38422;53.172;6.974;2023-03-14T14:56:03;6.15;;;1.27;;
52512;SDS011;38422;53.172;6.974;2023-03-14T14:58:40;5.40;;;0.90;;
52512;SDS011;38422;53.172;6.974;2023-03-14T15:01:16;7.00;;;1.10;;
52512;SDS011;38422;53.172;6.974;2023-03-14T15:03:45;8.30;;;1.00;;
52512;SDS011;38422;53.172;6.974;2023-03-14T15:06:13;5.53;;;1.05;;
52512;SDS011;38422;53.172;6.974;2023-03-14T15:08:42;7.05;;;0.95;;
52512;SDS011;38422;53.172;6.974;2023-03-14T15:11:12;8.77;;;1.20;;
52512;SDS011;38422;53.172;6.974;2023-03-14T15:13:42;7.65;;;1.30;;
52512;SDS011;38422;53.172;6.974;2023-03-14T15:16:11;7.35;;;1.10;;
52512;SDS011;38422;53.172;6.974;2023-03-14T15:18:39;5.10;;;1.10;;
52512;SDS011;38422;53.172;6.974;2023-03-14T15:21:05;7.53;;;1.17;;
52512;SDS011;38422;53.172;6.974;2023-03-14T15:23:31;7.32;;;1.30;;
52512;SDS011;38422;53.172;6.974;2023-03-14T15:25:56;6.85;;;1.10;;
52512;SDS011;38422;53.172;6.974;2023-03-14T15:28:26;7.15;;;1.45;;
52512;SDS011;38422;53.172;6.974;2023-03-14T15:30:54;8.13;;;1.05;;
52512;SDS011;38422;53.172;6.974;2023-03-14T15:33:22;4.45;;;1.35;;
52512;SDS011;38422;53.172;6.974;2023-03-14T15:35:48;8.55;;;1.10;;
52512;SDS011;38422;53.172;6.974;2023-03-14T15:38:15;6.85;;;0.88;;
52512;SDS011;38422;53.172;6.974;2023-03-14T15:40:46;6.43;;;0.98;;
52512;SDS011;38422;53.172;6.974;2023-03-14T15:43:12;5.50;;;1.00;;
52512;SDS011;38422;53.172;6.974;2023-03-14T15:45:38;4.80;;;0.88;;
52512;SDS011;38422;53.172;6.974;2023-03-14T15:48:03;5.80;;;0.93;;
52512;SDS011;38422;53.172;6.974;2023-03-14T15:50:29;4.53;;;0.90;;
52512;SDS011;38422;53.172;6.974;2023-03-14T15:52:55;3.35;;;0.80;;
52512;SDS011;38422;53.172;6.974;2023-03-14T15:55:21;3.22;;;0.77;;
52512;SDS011;38422;53.172;6.974;2023-03-14T15:57:47;5.28;;;0.90;;
52512;SDS011;38422;53.172;6.974;2023-03-14T16:00:15;6.27;;;0.83;;
52512;SDS011;38422;53.172;6.974;2023-03-14T16:02:43;5.07;;;0.82;;
52512;SDS011;38422;53.172;6.974;2023-03-14T16:05:10;6.03;;;1.07;;
52512;SDS011;38422;53.172;6.974;2023-03-14T16:07:37;5.40;;;0.80;;
52512;SDS011;38422;53.172;6.974;2023-03-14T16:10:04;4.37;;;0.70;;
52512;SDS011;38422;53.172;6.974;2023-03-14T16:12:31;5.60;;;0.77;;